createdAt,value
2022-09-05T00:05:00.884Z,0.00
2022-09-05T00:24:21.445Z,0.00
2022-09-05T00:35:07.219Z,0.00
2022-09-05T00:50:07.804Z,0.00
2022-09-05T01:05:08.896Z,0.00
2022-09-05T01:20:19.803Z,0.00
2022-09-05T01:35:16.149Z,0.00
2022-09-05T01:50:16.346Z,0.00
2022-09-05T02:05:16.839Z,0.00
2022-09-05T02:20:24.319Z,0.00
2022-09-05T02:35:24.752Z,0.00
2022-09-05T02:53:15.914Z,0.00
2022-09-05T03:05:31.760Z,0.00
2022-09-05T03:20:33.615Z,0.00
2022-09-05T03:35:34.203Z,0.00
2022-09-05T03:57:08.884Z,0.00
2022-09-05T04:08:16.194Z,0.00
2022-09-05T04:20:46.785Z,11.25
2022-09-05T04:35:46.882Z,33.75
2022-09-05T04:50:48.211Z,67.50
2022-09-05T05:06:14.661Z,123.75
2022-09-05T05:20:57.360Z,135.00
2022-09-05T05:35:59.683Z,180.00
2022-09-05T05:51:01.048Z,230.62
2022-09-05T06:06:02.374Z,219.38
2022-09-05T06:22:10.528Z,286.88
2022-09-05T06:36:08.880Z,365.62
2022-09-05T06:51:10.181Z,371.25
2022-09-05T07:06:19.824Z,410.62
2022-09-05T07:21:26.278Z,399.38
2022-09-05T07:36:20.990Z,427.50
2022-09-05T07:56:53.052Z,495.00
2022-09-05T08:07:45.506Z,562.50
2022-09-05T08:21:37.892Z,483.75
2022-09-05T08:36:39.909Z,877.50
2022-09-05T08:51:41.303Z,967.50
2022-09-05T09:06:47.284Z,776.25
2022-09-05T09:21:55.051Z,1001.25
2022-09-05T09:36:58.905Z,1670.62
2022-09-05T09:52:00.776Z,1603.12
2022-09-05T10:10:45.059Z,1951.88
2022-09-05T10:22:38.615Z,2593.12
2022-09-05T10:37:14.964Z,2902.50
2022-09-05T10:52:19.245Z,3026.25
2022-09-05T11:07:29.464Z,3386.25
2022-09-05T11:22:28.026Z,3442.50
2022-09-05T11:40:04.815Z,3076.88
2022-09-05T11:52:35.605Z,3341.25
2022-09-05T12:07:37.789Z,2936.25
2022-09-05T12:22:38.592Z,3301.88
2022-09-05T12:40:36.862Z,2497.50
2022-09-05T12:52:47.413Z,3420.00
2022-09-05T13:07:48.800Z,3555.00
2022-09-05T13:22:51.352Z,3841.88
2022-09-05T13:38:03.936Z,3780.00
2022-09-05T13:52:59.112Z,3813.75
2022-09-05T14:07:59.207Z,3532.50
2022-09-05T14:23:00.555Z,3408.75
2022-09-05T14:38:09.547Z,3183.75
2022-09-05T15:08:35.265Z,2655.00
2022-09-05T15:23:24.556Z,573.75
2022-09-05T15:38:28.044Z,433.12
2022-09-05T15:53:29.447Z,489.38
2022-09-05T16:10:38.780Z,303.75
2022-09-05T16:23:41.744Z,213.75
2022-09-05T16:38:49.211Z,185.62
2022-09-05T16:53:59.144Z,140.62
2022-09-05T17:08:56.780Z,90.00
2022-09-05T17:29:20.234Z,39.38
2022-09-05T17:39:06.699Z,16.88
2022-09-05T17:54:08.557Z,5.62
2022-09-05T18:09:09.938Z,0.00
2022-09-05T18:39:17.665Z,0.00
2022-09-05T18:54:22.006Z,0.00
2022-09-05T19:09:27.341Z,0.00
2022-09-05T19:24:36.575Z,0.00
2022-09-05T19:42:50.907Z,0.00
2022-09-05T19:54:41.438Z,0.00
2022-09-05T20:09:43.555Z,0.00
2022-09-05T20:24:45.742Z,0.00
2022-09-05T20:43:14.515Z,0.00
2022-09-05T20:54:55.068Z,0.00
2022-09-05T21:09:56.021Z,0.00
2022-09-05T21:24:56.889Z,0.00
2022-09-05T21:39:59.293Z,0.00
2022-09-05T21:59:14.016Z,0.00
2022-09-05T22:10:07.355Z,0.00
2022-09-05T22:25:08.426Z,0.00
2022-09-05T22:40:10.058Z,0.00
2022-09-05T22:55:11.596Z,0.00
2022-09-05T23:10:13.620Z,0.00
2022-09-05T23:25:15.652Z,0.00
2022-09-05T23:40:18.449Z,0.00
2022-09-05T23:55:20.501Z,0.00
